sensor_id;sensor_type;location;lat;lon;timestamp;pressure;altitude;pressure_sealevel;temperature
68127;BMP180;54931;52.098;21.006;2023-05-07T00:00:37;100816.20;;;4.60
68127;BMP180;54931;52.098;21.006;2023-05-07T00:03:20;100821.80;;;4.60
68127;BMP180;54931;52.098;21.006;2023-05-07T00:05:48;100827.00;;;4.60
68127;BMP180;54931;52.098;21.006;2023-05-07T00:08:16;100827.60;;;4.60
68127;BMP180;54931;52.098;21.006;2023-05-07T00:10:43;100825.40;;;4.60
68127;BMP180;54931;52.098;21.006;2023-05-07T00:13:11;100827.60;;;4.60
68127;BMP180;54931;52.098;21.006;2023-05-07T00:15:39;100826.20;;;4.60
68127;BMP180;54931;52.098;21.006;2023-05-07T00:18:06;100829.80;;;4.50
68127;BMP180;54931;52.098;21.006;2023-05-07T00:20:34;100835.20;;;4.50
68127;BMP180;54931;52.098;21.006;2023-05-07T00:23:02;100832.40;;;4.50
68127;BMP180;54931;52.098;21.006;2023-05-07T00:25:30;100833.40;;;4.50
68127;BMP180;54931;52.098;21.006;2023-05-07T00:27:57;100832.20;;;4.50
68127;BMP180;54931;52.098;21.006;2023-05-07T00:30:30;100836.80;;;4.50
68127;BMP180;54931;52.098;21.006;2023-05-07T00:32:57;100833.60;;;4.50
68127;BMP180;54931;52.098;21.006;2023-05-07T00:35:25;100831.00;;;4.48
68127;BMP180;54931;52.098;21.006;2023-05-07T00:37:53;100830.40;;;4.50
68127;BMP180;54931;52.098;21.006;2023-05-07T00:40:20;100828.20;;;4.40
68127;BMP180;54931;52.098;21.006;2023-05-07T00:42:49;100829.20;;;4.40
68127;BMP180;54931;52.098;21.006;2023-05-07T00:45:18;100832.60;;;4.40
68127;BMP180;54931;52.098;21.006;2023-05-07T00:47:45;100836.20;;;4.40
68127;BMP180;54931;52.098;21.006;2023-05-07T00:50:13;100838.20;;;4.40
68127;BMP180;54931;52.098;21.006;2023-05-07T00:52:41;100837.80;;;4.40
68127;BMP180;54931;52.098;21.006;2023-05-07T00:55:09;100841.00;;;4.40
68127;BMP180;54931;52.098;21.006;2023-05-07T00:57:39;100844.80;;;4.40
68127;BMP180;54931;52.098;21.006;2023-05-07T01:00:09;100840.20;;;4.40
68127;BMP180;54931;52.098;21.006;2023-05-07T01:02:39;100843.40;;;4.40
68127;BMP180;54931;52.098;21.006;2023-05-07T01:05:11;100839.00;;;4.40
68127;BMP180;54931;52.098;21.006;2023-05-07T01:07:41;100835.60;;;4.40
68127;BMP180;54931;52.098;21.006;2023-05-07T01:10:11;100833.20;;;4.40
68127;BMP180;54931;52.098;21.006;2023-05-07T01:12:40;100838.20;;;4.40
68127;BMP180;54931;52.098;21.006;2023-05-07T01:15:09;100833.80;;;4.40
68127;BMP180;54931;52.098;21.006;2023-05-07T01:17:42;100838.60;;;4.40
68127;BMP180;54931;52.098;21.006;2023-05-07T01:20:11;100843.60;;;4.40
68127;BMP180;54931;52.098;21.006;2023-05-07T01:22:39;100844.40;;;4.40
68127;BMP180;54931;52.098;21.006;2023-05-07T01:25:07;100847.00;;;4.40
68127;BMP180;54931;52.098;21.006;2023-05-07T01:27:35;100850.00;;;4.40
68127;BMP180;54931;52.098;21.006;2023-05-07T01:30:06;100857.00;;;4.40
68127;BMP180;54931;52.098;21.006;2023-05-07T01:32:44;100859.40;;;4.40
68127;BMP180;54931;52.098;21.006;2023-05-07T01:35:24;100858.00;;;4.40
68127;BMP180;54931;52.098;21.006;2023-05-07T01:37:53;100864.00;;;4.40
68127;BMP180;54931;52.098;21.006;2023-05-07T01:40:22;100865.40;;;4.40
68127;BMP180;54931;52.098;21.006;2023-05-07T01:42:50;100858.20;;;4.40
68127;BMP180;54931;52.098;21.006;2023-05-07T01:45:18;100852.40;;;4.40
68127;BMP180;54931;52.098;21.006;2023-05-07T01:47:46;100852.00;;;4.42
68127;BMP180;54931;52.098;21.006;2023-05-07T01:50:17;100852.80;;;4.40
68127;BMP180;54931;52.098;21.006;2023-05-07T01:52:47;100851.20;;;4.40
68127;BMP180;54931;52.098;21.006;2023-05-07T01:55:14;100851.40;;;4.40
68127;BMP180;54931;52.098;21.006;2023-05-07T01:57:42;100852.00;;;4.40
68127;BMP180;54931;52.098;21.006;2023-05-07T02:00:10;100857.00;;;4.40
68127;BMP180;54931;52.098;21.006;2023-05-07T02:02:38;100856.00;;;4.40
68127;BMP180;54931;52.098;21.006;2023-05-07T02:05:06;100856.60;;;4.40
68127;BMP180;54931;52.098;21.006;2023-05-07T02:07:34;100855.00;;;4.40
68127;BMP180;54931;52.098;21.006;2023-05-07T02:10:02;100857.20;;;4.40
68127;BMP180;54931;52.098;21.006;2023-05-07T02:12:30;100856.20;;;4.40
68127;BMP180;54931;52.098;21.006;2023-05-07T02:14:58;100857.80;;;4.40
68127;BMP180;54931;52.098;21.006;2023-05-07T02:17:25;100853.60;;;4.40
68127;BMP180;54931;52.098;21.006;2023-05-07T02:19:53;100851.80;;;4.40
68127;BMP180;54931;52.098;21.006;2023-05-07T02:22:20;100855.40;;;4.40
68127;BMP180;54931;52.098;21.006;2023-05-07T02:24:47;100852.60;;;4.40
68127;BMP180;54931;52.098;21.006;2023-05-07T02:27:15;100861.60;;;4.40
68127;BMP180;54931;52.098;21.006;2023-05-07T02:29:42;100858.00;;;4.40
68127;BMP180;54931;52.098;21.006;2023-05-07T02:32:10;100861.00;;;4.40
68127;BMP180;54931;52.098;21.006;2023-05-07T02:34:38;100866.40;;;4.40
68127;BMP180;54931;52.098;21.006;2023-05-07T02:37:05;100866.80;;;4.40
68127;BMP180;54931;52.098;21.006;2023-05-07T02:39:33;100868.80;;;4.40
68127;BMP180;54931;52.098;21.006;2023-05-07T02:42:01;100869.80;;;4.40
68127;BMP180;54931;52.098;21.006;2023-05-07T02:44:29;100867.40;;;4.40
68127;BMP180;54931;52.098;21.006;2023-05-07T02:46:58;100867.00;;;4.40
68127;BMP180;54931;52.098;21.006;2023-05-07T02:49:25;100872.80;;;4.40
68127;BMP180;54931;52.098;21.006;2023-05-07T02:51:53;100877.40;;;4.40
68127;BMP180;54931;52.098;21.006;2023-05-07T02:54:21;100877.20;;;4.40
68127;BMP180;54931;52.098;21.006;2023-05-07T02:56:48;100880.60;;;4.40
68127;BMP180;54931;52.098;21.006;2023-05-07T02:59:16;100880.20;;;4.40
68127;BMP180;54931;52.098;21.006;2023-05-07T03:01:44;100876.00;;;4.40
68127;BMP180;54931;52.098;21.006;2023-05-07T03:04:12;100882.20;;;4.40
68127;BMP180;54931;52.098;21.006;2023-05-07T03:06:40;100886.00;;;4.40
68127;BMP180;54931;52.098;21.006;2023-05-07T03:09:08;100883.80;;;4.40
68127;BMP180;54931;52.098;21.006;2023-05-07T03:11:35;100887.40;;;4.40
68127;BMP180;54931;52.098;21.006;2023-05-07T03:14:03;100886.80;;;4.40
68127;BMP180;54931;52.098;21.006;2023-05-07T03:16:31;100888.00;;;4.40
68127;BMP180;54931;52.098;21.006;2023-05-07T03:18:58;100886.00;;;4.42
68127;BMP180;54931;52.098;21.006;2023-05-07T03:21:26;100891.00;;;4.40
68127;BMP180;54931;52.098;21.006;2023-05-07T03:23:54;100891.40;;;4.42
68127;BMP180;54931;52.098;21.006;2023-05-07T03:26:22;100894.20;;;4.40
68127;BMP180;54931;52.098;21.006;2023-05-07T03:28:49;100893.20;;;4.46
68127;BMP180;54931;52.098;21.006;2023-05-07T03:31:17;100898.80;;;4.46
68127;BMP180;54931;52.098;21.006;2023-05-07T03:33:57;100900.20;;;4.50
68127;BMP180;54931;52.098;21.006;2023-05-07T03:36:24;100902.40;;;4.48
68127;BMP180;54931;52.098;21.006;2023-05-07T03:38:55;100908.60;;;4.50
68127;BMP180;54931;52.098;21.006;2023-05-07T03:41:23;100909.80;;;4.46
68127;BMP180;54931;52.098;21.006;2023-05-07T03:43:51;100909.20;;;4.50
68127;BMP180;54931;52.098;21.006;2023-05-07T03:46:19;100913.80;;;4.50
68127;BMP180;54931;52.098;21.006;2023-05-07T03:48:46;100914.20;;;4.50
68127;BMP180;54931;52.098;21.006;2023-05-07T03:51:14;100914.60;;;4.50
68127;BMP180;54931;52.098;21.006;2023-05-07T03:53:41;100916.00;;;4.50
68127;BMP180;54931;52.098;21.006;2023-05-07T03:56:09;100923.40;;;4.50
68127;BMP180;54931;52.098;21.006;2023-05-07T03:58:36;100922.20;;;4.50
68127;BMP180;54931;52.098;21.006;2023-05-07T04:01:04;100930.00;;;4.50
68127;BMP180;54931;52.098;21.006;2023-05-07T04:03:31;100929.60;;;4.50
68127;BMP180;54931;52.098;21.006;2023-05-07T04:05:59;100926.60;;;4.58
68127;BMP180;54931;52.098;21.006;2023-05-07T04:08:27;100932.40;;;4.60
68127;BMP180;54931;52.098;21.006;2023-05-07T04:10:58;100931.20;;;4.60
68127;BMP180;54931;52.098;21.006;2023-05-07T04:13:26;100940.20;;;4.60
68127;BMP180;54931;52.098;21.006;2023-05-07T04:15:55;100939.00;;;4.60
68127;BMP180;54931;52.098;21.006;2023-05-07T04:18:23;100944.40;;;4.60
68127;BMP180;54931;52.098;21.006;2023-05-07T04:20:50;100947.00;;;4.60
68127;BMP180;54931;52.098;21.006;2023-05-07T04:23:18;100946.00;;;4.60
68127;BMP180;54931;52.098;21.006;2023-05-07T04:25:45;100949.40;;;4.60
68127;BMP180;54931;52.098;21.006;2023-05-07T04:28:14;100949.40;;;4.60
68127;BMP180;54931;52.098;21.006;2023-05-07T04:30:42;100950.00;;;4.60
68127;BMP180;54931;52.098;21.006;2023-05-07T04:33:10;100948.60;;;4.60
68127;BMP180;54931;52.098;21.006;2023-05-07T04:35:37;100959.80;;;4.60
68127;BMP180;54931;52.098;21.006;2023-05-07T04:38:05;100960.00;;;4.60
68127;BMP180;54931;52.098;21.006;2023-05-07T04:40:33;100963.60;;;4.60
68127;BMP180;54931;52.098;21.006;2023-05-07T04:43:02;100965.80;;;4.62
68127;BMP180;54931;52.098;21.006;2023-05-07T04:45:30;100967.60;;;4.60
68127;BMP180;54931;52.098;21.006;2023-05-07T04:47:57;100965.60;;;4.62
68127;BMP180;54931;52.098;21.006;2023-05-07T04:50:25;100967.80;;;4.70
68127;BMP180;54931;52.098;21.006;2023-05-07T04:52:53;100971.20;;;4.70
68127;BMP180;54931;52.098;21.006;2023-05-07T04:55:20;100974.40;;;4.70
68127;BMP180;54931;52.098;21.006;2023-05-07T04:57:48;100979.60;;;4.70
68127;BMP180;54931;52.098;21.006;2023-05-07T05:00:16;100982.60;;;4.70
68127;BMP180;54931;52.098;21.006;2023-05-07T05:02:46;100984.40;;;4.70
68127;BMP180;54931;52.098;21.006;2023-05-07T05:05:14;100984.00;;;4.70
68127;BMP180;54931;52.098;21.006;2023-05-07T05:07:42;100990.00;;;4.70
68127;BMP180;54931;52.098;21.006;2023-05-07T05:10:09;100991.60;;;4.70
68127;BMP180;54931;52.098;21.006;2023-05-07T05:12:37;100991.80;;;4.70
68127;BMP180;54931;52.098;21.006;2023-05-07T05:15:06;100999.40;;;4.78
68127;BMP180;54931;52.098;21.006;2023-05-07T05:17:35;100997.80;;;4.80
68127;BMP180;54931;52.098;21.006;2023-05-07T05:20:05;101005.40;;;4.80
68127;BMP180;54931;52.098;21.006;2023-05-07T05:22:33;101007.80;;;4.80
68127;BMP180;54931;52.098;21.006;2023-05-07T05:25:00;101011.20;;;4.82
68127;BMP180;54931;52.098;21.006;2023-05-07T05:27:29;101009.60;;;4.90
68127;BMP180;54931;52.098;21.006;2023-05-07T05:29:56;101014.40;;;4.90
68127;BMP180;54931;52.098;21.006;2023-05-07T05:32:24;101010.80;;;4.90
68127;BMP180;54931;52.098;21.006;2023-05-07T05:34:52;101010.40;;;5.00
68127;BMP180;54931;52.098;21.006;2023-05-07T05:37:20;101014.80;;;5.00
68127;BMP180;54931;52.098;21.006;2023-05-07T05:39:47;101014.60;;;5.00
68127;BMP180;54931;52.098;21.006;2023-05-07T05:42:15;101016.60;;;5.00
68127;BMP180;54931;52.098;21.006;2023-05-07T05:44:43;101015.20;;;5.10
68127;BMP180;54931;52.098;21.006;2023-05-07T05:47:10;101021.00;;;5.10
68127;BMP180;54931;52.098;21.006;2023-05-07T05:49:38;101020.00;;;5.10
68127;BMP180;54931;52.098;21.006;2023-05-07T05:52:06;101024.60;;;5.20
68127;BMP180;54931;52.098;21.006;2023-05-07T05:54:33;101029.20;;;5.20
68127;BMP180;54931;52.098;21.006;2023-05-07T05:57:01;101031.00;;;5.20
68127;BMP180;54931;52.098;21.006;2023-05-07T05:59:31;101026.20;;;5.30
68127;BMP180;54931;52.098;21.006;2023-05-07T06:01:59;101026.80;;;5.32
68127;BMP180;54931;52.098;21.006;2023-05-07T06:04:26;101034.80;;;5.40
68127;BMP180;54931;52.098;21.006;2023-05-07T06:06:53;101035.00;;;5.42
68127;BMP180;54931;52.098;21.006;2023-05-07T06:09:21;101039.20;;;5.50
68127;BMP180;54931;52.098;21.006;2023-05-07T06:11:49;101038.20;;;5.50
68127;BMP180;54931;52.098;21.006;2023-05-07T06:14:17;101036.80;;;5.54
68127;BMP180;54931;52.098;21.006;2023-05-07T06:16:44;101038.60;;;5.58
68127;BMP180;54931;52.098;21.006;2023-05-07T06:19:12;101038.60;;;5.60
68127;BMP180;54931;52.098;21.006;2023-05-07T06:21:39;101050.00;;;5.68
68127;BMP180;54931;52.098;21.006;2023-05-07T06:24:08;101046.60;;;5.80
68127;BMP180;54931;52.098;21.006;2023-05-07T06:26:35;101051.40;;;6.00
68127;BMP180;54931;52.098;21.006;2023-05-07T06:29:03;101057.80;;;6.20
68127;BMP180;54931;52.098;21.006;2023-05-07T06:31:31;101047.60;;;6.32
68127;BMP180;54931;52.098;21.006;2023-05-07T06:33:59;101048.40;;;6.40
68127;BMP180;54931;52.098;21.006;2023-05-07T06:36:27;101046.60;;;6.52
68127;BMP180;54931;52.098;21.006;2023-05-07T06:38:54;101046.80;;;6.60
68127;BMP180;54931;52.098;21.006;2023-05-07T06:41:22;101037.80;;;6.70
68127;BMP180;54931;52.098;21.006;2023-05-07T06:43:50;101033.60;;;6.88
68127;BMP180;54931;52.098;21.006;2023-05-07T06:46:17;101040.00;;;7.00
68127;BMP180;54931;52.098;21.006;2023-05-07T06:48:45;101034.40;;;7.04
68127;BMP180;54931;52.098;21.006;2023-05-07T06:51:12;101040.20;;;7.30
68127;BMP180;54931;52.098;21.006;2023-05-07T06:53:40;101042.20;;;7.30
68127;BMP180;54931;52.098;21.006;2023-05-07T06:56:07;101039.80;;;7.30
68127;BMP180;54931;52.098;21.006;2023-05-07T06:58:35;101041.40;;;7.30
68127;BMP180;54931;52.098;21.006;2023-05-07T07:01:03;101043.80;;;7.40
68127;BMP180;54931;52.098;21.006;2023-05-07T07:03:30;101051.00;;;7.50
68127;BMP180;54931;52.098;21.006;2023-05-07T07:05:58;101050.80;;;7.52
68127;BMP180;54931;52.098;21.006;2023-05-07T07:08:26;101059.80;;;7.50
68127;BMP180;54931;52.098;21.006;2023-05-07T07:10:54;101064.00;;;7.42
68127;BMP180;54931;52.098;21.006;2023-05-07T07:13:21;101072.20;;;7.40
68127;BMP180;54931;52.098;21.006;2023-05-07T07:15:49;101065.20;;;7.30
68127;BMP180;54931;52.098;21.006;2023-05-07T07:18:16;101071.40;;;7.28
68127;BMP180;54931;52.098;21.006;2023-05-07T07:20:44;101073.20;;;7.30
68127;BMP180;54931;52.098;21.006;2023-05-07T07:23:12;101075.00;;;7.30
68127;BMP180;54931;52.098;21.006;2023-05-07T07:25:39;101077.20;;;7.30
68127;BMP180;54931;52.098;21.006;2023-05-07T07:28:07;101086.00;;;7.30
68127;BMP180;54931;52.098;21.006;2023-05-07T07:30:37;101080.40;;;7.20
68127;BMP180;54931;52.098;21.006;2023-05-07T07:33:05;101076.60;;;7.20
68127;BMP180;54931;52.098;21.006;2023-05-07T07:35:32;101077.20;;;7.20
68127;BMP180;54931;52.098;21.006;2023-05-07T07:38:00;101084.80;;;7.30
68127;BMP180;54931;52.098;21.006;2023-05-07T07:40:28;101090.40;;;7.30
68127;BMP180;54931;52.098;21.006;2023-05-07T07:42:57;101091.00;;;7.40
68127;BMP180;54931;52.098;21.006;2023-05-07T07:45:25;101101.20;;;7.40
68127;BMP180;54931;52.098;21.006;2023-05-07T07:47:52;101101.60;;;7.46
68127;BMP180;54931;52.098;21.006;2023-05-07T07:50:20;101101.40;;;7.50
68127;BMP180;54931;52.098;21.006;2023-05-07T07:52:48;101099.60;;;7.60
68127;BMP180;54931;52.098;21.006;2023-05-07T07:55:20;101093.20;;;7.50
68127;BMP180;54931;52.098;21.006;2023-05-07T07:57:50;101096.40;;;7.50
68127;BMP180;54931;52.098;21.006;2023-05-07T08:00:18;101095.20;;;7.60
68127;BMP180;54931;52.098;21.006;2023-05-07T08:02:45;101092.80;;;7.60
68127;BMP180;54931;52.098;21.006;2023-05-07T08:05:13;101098.20;;;7.60
68127;BMP180;54931;52.098;21.006;2023-05-07T08:07:42;101101.20;;;7.60
68127;BMP180;54931;52.098;21.006;2023-05-07T08:10:10;101106.40;;;7.60
68127;BMP180;54931;52.098;21.006;2023-05-07T08:12:38;101104.20;;;7.60
68127;BMP180;54931;52.098;21.006;2023-05-07T08:15:06;101108.80;;;7.60
68127;BMP180;54931;52.098;21.006;2023-05-07T08:17:34;101114.60;;;7.62
68127;BMP180;54931;52.098;21.006;2023-05-07T08:20:03;101115.40;;;7.70
68127;BMP180;54931;52.098;21.006;2023-05-07T08:22:30;101117.40;;;7.70
68127;BMP180;54931;52.098;21.006;2023-05-07T08:24:58;101113.60;;;7.80
68127;BMP180;54931;52.098;21.006;2023-05-07T08:27:27;101115.80;;;7.80
68127;BMP180;54931;52.098;21.006;2023-05-07T08:29:55;101114.80;;;7.76
68127;BMP180;54931;52.098;21.006;2023-05-07T08:32:22;101114.20;;;7.70
68127;BMP180;54931;52.098;21.006;2023-05-07T08:34:50;101121.60;;;7.70
68127;BMP180;54931;52.098;21.006;2023-05-07T08:37:17;101124.60;;;7.70
68127;BMP180;54931;52.098;21.006;2023-05-07T08:39:44;101127.00;;;7.64
68127;BMP180;54931;52.098;21.006;2023-05-07T08:42:16;101127.80;;;7.60
68127;BMP180;54931;52.098;21.006;2023-05-07T08:44:45;101125.60;;;7.60
68127;BMP180;54931;52.098;21.006;2023-05-07T08:47:17;101136.00;;;7.60
68127;BMP180;54931;52.098;21.006;2023-05-07T08:49:46;101136.80;;;7.64
68127;BMP180;54931;52.098;21.006;2023-05-07T08:52:13;101143.80;;;7.70
68127;BMP180;54931;52.098;21.006;2023-05-07T08:54:41;101136.60;;;7.70
68127;BMP180;54931;52.098;21.006;2023-05-07T08:57:09;101147.00;;;7.66
68127;BMP180;54931;52.098;21.006;2023-05-07T08:59:37;101149.20;;;7.62
68127;BMP180;54931;52.098;21.006;2023-05-07T09:02:09;101150.40;;;7.60
68127;BMP180;54931;52.098;21.006;2023-05-07T09:04:37;101152.80;;;7.60
68127;BMP180;54931;52.098;21.006;2023-05-07T09:07:05;101157.20;;;7.60
68127;BMP180;54931;52.098;21.006;2023-05-07T09:09:33;101164.60;;;7.50
68127;BMP180;54931;52.098;21.006;2023-05-07T09:12:01;101160.40;;;7.48
68127;BMP180;54931;52.098;21.006;2023-05-07T09:14:30;101165.60;;;7.40
68127;BMP180;54931;52.098;21.006;2023-05-07T09:16:58;101166.40;;;7.40
68127;BMP180;54931;52.098;21.006;2023-05-07T09:19:27;101168.00;;;7.40
68127;BMP180;54931;52.098;21.006;2023-05-07T09:22:03;101160.20;;;7.50
68127;BMP180;54931;52.098;21.006;2023-05-07T09:24:31;101161.80;;;7.72
68127;BMP180;54931;52.098;21.006;2023-05-07T09:27:02;101172.40;;;8.00
68127;BMP180;54931;52.098;21.006;2023-05-07T09:29:30;101178.20;;;8.20
68127;BMP180;54931;52.098;21.006;2023-05-07T09:32:07;101178.60;;;8.30
68127;BMP180;54931;52.098;21.006;2023-05-07T09:34:36;101178.40;;;8.32
68127;BMP180;54931;52.098;21.006;2023-05-07T09:37:05;101183.40;;;8.40
68127;BMP180;54931;52.098;21.006;2023-05-07T09:39:44;101181.80;;;8.40
68127;BMP180;54931;52.098;21.006;2023-05-07T09:42:13;101181.40;;;8.50
68127;BMP180;54931;52.098;21.006;2023-05-07T09:44:44;101182.80;;;8.50
68127;BMP180;54931;52.098;21.006;2023-05-07T09:47:19;101184.80;;;8.48
68127;BMP180;54931;52.098;21.006;2023-05-07T09:49:48;101184.40;;;8.40
68127;BMP180;54931;52.098;21.006;2023-05-07T09:52:16;101186.60;;;8.40
68127;BMP180;54931;52.098;21.006;2023-05-07T09:54:46;101182.80;;;8.50
68127;BMP180;54931;52.098;21.006;2023-05-07T09:57:15;101191.00;;;8.40
68127;BMP180;54931;52.098;21.006;2023-05-07T09:59:45;101187.00;;;8.44
68127;BMP180;54931;52.098;21.006;2023-05-07T10:02:15;101197.00;;;8.44
68127;BMP180;54931;52.098;21.006;2023-05-07T10:04:43;101203.40;;;8.40
68127;BMP180;54931;52.098;21.006;2023-05-07T10:07:14;101202.60;;;8.40
68127;BMP180;54931;52.098;21.006;2023-05-07T10:09:43;101205.20;;;8.40
68127;BMP180;54931;52.098;21.006;2023-05-07T10:12:14;101209.40;;;8.40
68127;BMP180;54931;52.098;21.006;2023-05-07T10:14:42;101214.80;;;8.50
68127;BMP180;54931;52.098;21.006;2023-05-07T10:17:11;101211.00;;;8.60
68127;BMP180;54931;52.098;21.006;2023-05-07T10:19:40;101209.80;;;8.68
68127;BMP180;54931;52.098;21.006;2023-05-07T10:22:09;101210.00;;;8.78
68127;BMP180;54931;52.098;21.006;2023-05-07T10:24:37;101216.60;;;8.90
68127;BMP180;54931;52.098;21.006;2023-05-07T10:27:11;101220.00;;;8.90
68127;BMP180;54931;52.098;21.006;2023-05-07T10:30:08;101219.00;;;9.00
68127;BMP180;54931;52.098;21.006;2023-05-07T10:32:45;101220.40;;;9.00
68127;BMP180;54931;52.098;21.006;2023-05-07T10:35:21;101226.00;;;8.92
68127;BMP180;54931;52.098;21.006;2023-05-07T10:37:51;101225.20;;;8.90
68127;BMP180;54931;52.098;21.006;2023-05-07T10:40:20;101223.80;;;9.00
68127;BMP180;54931;52.098;21.006;2023-05-07T10:43:00;101214.80;;;9.00
68127;BMP180;54931;52.098;21.006;2023-05-07T10:45:29;101224.60;;;9.00
68127;BMP180;54931;52.098;21.006;2023-05-07T10:48:16;101226.80;;;9.10
68127;BMP180;54931;52.098;21.006;2023-05-07T10:50:44;101227.60;;;9.10
68127;BMP180;54931;52.098;21.006;2023-05-07T10:58:46;101234.20;;;9.20
68127;BMP180;54931;52.098;21.006;2023-05-07T11:01:14;101232.00;;;9.10
68127;BMP180;54931;52.098;21.006;2023-05-07T11:04:16;101237.20;;;9.04
68127;BMP180;54931;52.098;21.006;2023-05-07T11:07:25;101243.60;;;9.00
68127;BMP180;54931;52.098;21.006;2023-05-07T11:15:36;101246.00;;;8.90
68127;BMP180;54931;52.098;21.006;2023-05-07T11:18:04;101244.40;;;9.00
68127;BMP180;54931;52.098;21.006;2023-05-07T11:26:07;101250.00;;;9.30
68127;BMP180;54931;52.098;21.006;2023-05-07T11:28:43;101249.80;;;9.34
68127;BMP180;54931;52.098;21.006;2023-05-07T11:31:11;101251.20;;;9.40
68127;BMP180;54931;52.098;21.006;2023-05-07T11:33:39;101253.00;;;9.40
68127;BMP180;54931;52.098;21.006;2023-05-07T11:36:08;101252.40;;;9.40
68127;BMP180;54931;52.098;21.006;2023-05-07T11:38:37;101252.40;;;9.50
68127;BMP180;54931;52.098;21.006;2023-05-07T11:41:07;101252.60;;;9.60
68127;BMP180;54931;52.098;21.006;2023-05-07T11:43:35;101262.60;;;9.70
68127;BMP180;54931;52.098;21.006;2023-05-07T11:46:09;101255.40;;;9.92
68127;BMP180;54931;52.098;21.006;2023-05-07T11:48:38;101262.20;;;10.28
68127;BMP180;54931;52.098;21.006;2023-05-07T11:51:07;101265.00;;;10.44
68127;BMP180;54931;52.098;21.006;2023-05-07T11:53:42;101261.20;;;10.50
68127;BMP180;54931;52.098;21.006;2023-05-07T11:56:13;101260.80;;;10.60
68127;BMP180;54931;52.098;21.006;2023-05-07T11:58:43;101260.20;;;10.80
68127;BMP180;54931;52.098;21.006;2023-05-07T12:01:13;101262.00;;;11.00
68127;BMP180;54931;52.098;21.006;2023-05-07T12:03:43;101262.20;;;10.92
68127;BMP180;54931;52.098;21.006;2023-05-07T12:06:14;101264.00;;;10.70
68127;BMP180;54931;52.098;21.006;2023-05-07T12:08:43;101265.00;;;10.58
68127;BMP180;54931;52.098;21.006;2023-05-07T12:11:24;101270.80;;;10.44
68127;BMP180;54931;52.098;21.006;2023-05-07T12:13:54;101272.60;;;10.40
68127;BMP180;54931;52.098;21.006;2023-05-07T12:16:23;101272.60;;;10.40
68127;BMP180;54931;52.098;21.006;2023-05-07T12:18:51;101269.20;;;10.54
68127;BMP180;54931;52.098;21.006;2023-05-07T12:21:23;101268.00;;;10.74
68127;BMP180;54931;52.098;21.006;2023-05-07T12:23:52;101272.40;;;10.80
68127;BMP180;54931;52.098;21.006;2023-05-07T12:26:20;101272.20;;;10.78
68127;BMP180;54931;52.098;21.006;2023-05-07T12:28:48;101277.20;;;10.60
68127;BMP180;54931;52.098;21.006;2023-05-07T12:31:17;101278.00;;;10.50
68127;BMP180;54931;52.098;21.006;2023-05-07T12:33:45;101275.40;;;10.40
68127;BMP180;54931;52.098;21.006;2023-05-07T12:36:15;101279.00;;;10.32
68127;BMP180;54931;52.098;21.006;2023-05-07T12:38:42;101284.00;;;10.40
68127;BMP180;54931;52.098;21.006;2023-05-07T12:41:10;101283.00;;;10.60
68127;BMP180;54931;52.098;21.006;2023-05-07T12:43:39;101283.80;;;10.80
68127;BMP180;54931;52.098;21.006;2023-05-07T12:46:07;101282.60;;;10.88
68127;BMP180;54931;52.098;21.006;2023-05-07T12:48:43;101286.00;;;10.94
68127;BMP180;54931;52.098;21.006;2023-05-07T12:51:11;101288.20;;;11.00
68127;BMP180;54931;52.098;21.006;2023-05-07T12:53:41;101282.80;;;11.36
68127;BMP180;54931;52.098;21.006;2023-05-07T12:56:15;101286.60;;;11.52
68127;BMP180;54931;52.098;21.006;2023-05-07T12:58:43;101293.60;;;11.50
68127;BMP180;54931;52.098;21.006;2023-05-07T13:01:10;101288.80;;;11.54
68127;BMP180;54931;52.098;21.006;2023-05-07T13:03:48;101287.40;;;11.36
68127;BMP180;54931;52.098;21.006;2023-05-07T13:06:17;101287.00;;;11.30
68127;BMP180;54931;52.098;21.006;2023-05-07T13:08:44;101294.60;;;11.20
68127;BMP180;54931;52.098;21.006;2023-05-07T13:11:13;101291.40;;;11.10
68127;BMP180;54931;52.098;21.006;2023-05-07T13:13:41;101294.60;;;11.10
68127;BMP180;54931;52.098;21.006;2023-05-07T13:16:11;101296.80;;;11.04
68127;BMP180;54931;52.098;21.006;2023-05-07T13:18:40;101286.60;;;11.24
68127;BMP180;54931;52.098;21.006;2023-05-07T13:21:07;101279.00;;;11.62
68127;BMP180;54931;52.098;21.006;2023-05-07T13:23:35;101276.80;;;12.14
68127;BMP180;54931;52.098;21.006;2023-05-07T13:26:03;101280.80;;;12.40
68127;BMP180;54931;52.098;21.006;2023-05-07T13:28:30;101283.80;;;12.30
68127;BMP180;54931;52.098;21.006;2023-05-07T13:30:58;101287.00;;;12.08
68127;BMP180;54931;52.098;21.006;2023-05-07T13:33:25;101285.60;;;11.80
68127;BMP180;54931;52.098;21.006;2023-05-07T13:35:52;101290.40;;;11.70
68127;BMP180;54931;52.098;21.006;2023-05-07T13:38:20;101290.40;;;11.50
68127;BMP180;54931;52.098;21.006;2023-05-07T13:40:47;101289.00;;;11.50
68127;BMP180;54931;52.098;21.006;2023-05-07T13:43:15;101288.60;;;11.72
68127;BMP180;54931;52.098;21.006;2023-05-07T13:45:44;101286.00;;;11.78
68127;BMP180;54931;52.098;21.006;2023-05-07T13:48:12;101284.00;;;11.70
68127;BMP180;54931;52.098;21.006;2023-05-07T13:50:40;101286.20;;;11.70
68127;BMP180;54931;52.098;21.006;2023-05-07T13:53:08;101291.60;;;11.70
68127;BMP180;54931;52.098;21.006;2023-05-07T13:55:36;101294.60;;;11.70
68127;BMP180;54931;52.098;21.006;2023-05-07T13:58:04;101295.80;;;11.60
68127;BMP180;54931;52.098;21.006;2023-05-07T14:00:31;101289.60;;;11.28
68127;BMP180;54931;52.098;21.006;2023-05-07T14:03:00;101290.60;;;11.22
68127;BMP180;54931;52.098;21.006;2023-05-07T14:05:27;101291.60;;;11.58
68127;BMP180;54931;52.098;21.006;2023-05-07T14:07:57;101292.60;;;11.98
68127;BMP180;54931;52.098;21.006;2023-05-07T14:10:25;101286.80;;;12.54
68127;BMP180;54931;52.098;21.006;2023-05-07T14:12:53;101291.20;;;12.60
68127;BMP180;54931;52.098;21.006;2023-05-07T14:15:21;101293.20;;;12.60
68127;BMP180;54931;52.098;21.006;2023-05-07T14:17:48;101293.60;;;12.50
68127;BMP180;54931;52.098;21.006;2023-05-07T14:20:16;101295.00;;;12.72